Time;durP1;ratioP1;P1;durP2;ratioP2;P2;SDS_P1;SDS_P2;PMS_P1;PMS_P2;Temp;Humidity;BMP_temperature;BMP_pressure;BME280_temperature;BME280_humidity;BME280_pressure;Samples;Min_cycle;Max_cycle;Signal;HPM_P1;HPM_P2
2021/08/29 00:00:18;;;;;;;0.00;0.00;;;;;;;19.54;59.97;102306.56;5039757;28;20085;-96
2021/08/29 00:02:45;;;;;;;0.05;0.05;;;;;;;19.66;59.78;102310.63;5040445;28;20503;-96
2021/08/29 00:05:12;;;;;;;0.10;0.10;;;;;;;19.62;60.02;102304.47;5038829;28;20068;-96
2021/08/29 00:07:38;;;;;;;0.10;0.10;;;;;;;19.68;59.97;102306.09;5038107;28;20444;-96
2021/08/29 00:10:06;;;;;;;0.00;0.00;;;;;;;19.74;59.64;102303.19;5038136;28;20065;-96
2021/08/29 00:12:34;;;;;;;0.05;0.05;;;;;;;19.63;59.95;102300.88;5040908;28;20037;-96
2021/08/29 00:15:00;;;;;;;0.10;0.10;;;;;;;19.67;60.10;102297.13;5042448;28;20411;-94
2021/08/29 00:17:28;;;;;;;0.10;0.10;;;;;;;19.69;60.00;102299.78;5041911;28;20056;-96
2021/08/29 00:19:55;;;;;;;0.10;0.10;;;;;;;19.66;60.07;102299.88;5042215;28;20060;-96
2021/08/29 00:22:21;;;;;;;0.10;0.10;;;;;;;19.76;59.86;102303.13;5040468;28;20112;-96
2021/08/29 00:24:48;;;;;;;0.10;0.10;;;;;;;19.71;59.82;102304.16;5043088;28;20035;-96
2021/08/29 00:27:14;;;;;;;0.47;0.47;;;;;;;19.64;60.26;102297.25;5041083;28;20025;-94
2021/08/29 00:29:41;;;;;;;0.10;0.10;;;;;;;19.60;60.44;102302.78;5039424;28;20114;-96
2021/08/29 00:32:08;;;;;;;0.00;0.00;;;;;;;19.49;60.85;102298.66;5040357;28;20034;-96
2021/08/29 00:34:34;;;;;;;0.22;0.22;;;;;;;19.47;61.11;102297.81;5042687;28;20048;-96
2021/08/29 00:37:01;;;;;;;0.10;0.10;;;;;;;19.59;60.50;102299.22;5043789;28;20079;-96
2021/08/29 00:39:27;;;;;;;0.82;0.68;;;;;;;19.52;60.75;102287.78;5042413;28;20044;-96
2021/08/29 00:41:57;;;;;;;0.10;0.10;;;;;;;19.52;61.02;102293.16;5040677;28;20030;-96
2021/08/29 00:44:24;;;;;;;0.10;0.10;;;;;;;19.57;60.52;102287.63;5045226;28;20041;-89
2021/08/29 00:46:50;;;;;;;0.00;0.00;;;;;;;19.52;60.83;102292.28;5038068;28;20037;-96
2021/08/29 00:49:17;;;;;;;0.10;0.10;;;;;;;19.51;60.45;102293.22;5037143;28;20033;-96
2021/08/29 00:51:52;;;;;;;0.10;0.10;;;;;;;19.43;61.11;102285.44;5038560;28;20520;-96
2021/08/29 00:54:19;;;;;;;0.20;0.20;;;;;;;19.41;61.28;102295.34;5036743;28;20025;-96
2021/08/29 00:56:45;;;;;;;0.20;0.20;;;;;;;19.44;61.27;102287.19;5038253;28;20076;-95
2021/08/29 00:59:12;;;;;;;0.20;0.20;;;;;;;19.39;61.24;102287.34;5039199;28;20041;-96
2021/08/29 01:01:54;;;;;;;7.43;2.45;;;;;;;19.37;61.88;102294.56;5042865;28;20029;-94
2021/08/29 01:04:24;;;;;;;0.10;0.10;;;;;;;19.31;62.15;102286.72;5043326;28;20056;-96
2021/08/29 01:06:59;;;;;;;0.45;0.45;;;;;;;19.32;62.09;102284.91;5041560;28;20037;-96
2021/08/29 01:09:28;;;;;;;0.10;0.10;;;;;;;19.30;62.00;102292.16;5044775;28;20051;-96
2021/08/29 01:11:56;;;;;;;0.05;0.05;;;;;;;19.46;61.36;102292.50;5044076;28;20029;-96
2021/08/29 01:14:27;;;;;;;0.00;0.00;;;;;;;19.35;61.96;102291.06;5046115;28;20138;-89
2021/08/29 01:16:57;;;;;;;0.52;0.52;;;;;;;19.42;61.49;102288.19;5056118;28;20083;-96
2021/08/29 01:19:40;;;;;;;0.10;0.10;;;;;;;19.53;61.38;102288.69;5049778;28;20025;-96
2021/08/29 01:22:09;;;;;;;0.35;0.35;;;;;;;19.52;61.40;102277.03;5042987;28;20033;-96
2021/08/29 01:24:36;;;;;;;0.10;0.10;;;;;;;19.42;61.54;102285.50;5037903;28;20037;-96
2021/08/29 01:29:51;;;;;;;0.50;0.50;;;;;;;19.38;61.65;102280.19;5092719;27;20412;-94
2021/08/29 01:32:20;;;;;;;0.10;0.10;;;;;;;19.44;61.26;102278.22;5067522;28;20409;-96
2021/08/29 01:34:48;;;;;;;0.20;0.20;;;;;;;19.40;61.40;102283.72;5052404;28;20025;-96
2021/08/29 01:37:16;;;;;;;0.13;0.13;;;;;;;19.47;61.24;102283.53;5058653;28;20436;-96
2021/08/29 01:39:44;;;;;;;0.20;0.20;;;;;;;19.42;61.40;102280.13;5056204;28;20060;-96
2021/08/29 01:42:11;;;;;;;0.10;0.10;;;;;;;19.50;61.05;102283.41;5052383;28;20025;-96
2021/08/29 01:44:39;;;;;;;0.25;0.25;;;;;;;19.44;61.33;102283.59;5051852;28;20034;-96
2021/08/29 01:47:06;;;;;;;0.00;0.00;;;;;;;19.31;61.45;102278.66;5054970;28;20029;-96
2021/08/29 01:49:34;;;;;;;0.08;0.08;;;;;;;19.37;61.26;102285.63;5063173;28;20042;-96
2021/08/29 01:52:01;;;;;;;0.15;0.15;;;;;;;19.44;61.01;102283.59;5061860;28;20038;-96
2021/08/29 01:54:27;;;;;;;0.00;0.00;;;;;;;19.34;60.94;102283.03;5064101;28;20049;-96
2021/08/29 01:59:58;;;;;;;0.20;0.20;;;;;;;19.42;60.81;102288.19;5093772;27;20904;-96
2021/08/29 02:02:24;;;;;;;0.10;0.10;;;;;;;19.36;60.83;102287.44;5091819;28;20036;-96
2021/08/29 02:04:51;;;;;;;0.10;0.10;;;;;;;19.25;60.81;102289.59;5091551;28;20036;-95
2021/08/29 02:07:40;;;;;;;0.10;0.10;;;;;;;19.48;60.38;102286.16;5092561;28;20043;-95
2021/08/29 02:10:09;;;;;;;0.20;0.20;;;;;;;19.48;60.43;102290.66;5092523;28;20040;-96
2021/08/29 02:12:43;;;;;;;0.08;0.08;;;;;;;19.36;60.34;102291.94;5093154;28;20038;-93
2021/08/29 02:18:13;;;;;;;0.10;0.10;;;;;;;19.49;59.91;102287.00;5071675;28;20491;-94
2021/08/29 02:20:41;;;;;;;0.00;0.00;;;;;;;19.35;60.20;102291.06;5072123;28;20028;-96
2021/08/29 02:23:08;;;;;;;0.10;0.10;;;;;;;19.45;59.82;102285.38;5059772;28;20275;-96
2021/08/29 02:25:35;;;;;;;6.03;1.10;;;;;;;19.38;60.10;102290.94;5052561;28;20074;-95
2021/08/29 02:28:03;;;;;;;0.55;0.25;;;;;;;19.40;59.87;102293.59;5053044;28;20086;-96
2021/08/29 02:30:30;;;;;;;0.93;0.93;;;;;;;19.36;59.96;102287.44;5053546;28;20034;-96
2021/08/29 02:32:58;;;;;;;0.22;0.22;;;;;;;19.45;59.48;102286.25;5052353;28;20029;-96
2021/08/29 02:35:59;;;;;;;0.63;0.63;;;;;;;19.54;59.52;102290.44;5058750;28;20027;-94
2021/08/29 02:38:30;;;;;;;0.10;0.10;;;;;;;19.46;59.71;102292.50;5052531;28;20068;-96
2021/08/29 02:40:58;;;;;;;1.13;1.10;;;;;;;19.44;59.57;102289.88;5058729;28;20468;-96
2021/08/29 02:43:26;;;;;;;1.80;1.27;;;;;;;19.40;59.77;102288.19;5051775;28;20025;-96
2021/08/29 02:45:54;;;;;;;0.20;0.20;;;;;;;19.35;59.90;102284.81;5052003;28;20032;-96
2021/08/29 02:48:25;;;;;;;0.00;0.00;;;;;;;19.31;59.97;102284.03;5052933;28;20033;-94
2021/08/29 02:50:53;;;;;;;0.10;0.10;;;;;;;19.34;59.85;102288.41;5051288;28;20095;-96
2021/08/29 02:53:20;;;;;;;0.20;0.20;;;;;;;19.30;59.93;102284.97;5053258;28;20025;-94
2021/08/29 02:55:53;;;;;;;1.75;1.35;;;;;;;19.14;60.22;102289.09;5053053;28;20029;-96
2021/08/29 02:58:19;;;;;;;;;;;;;;;19.37;59.70;102286.50;5052448;28;20037;-95
2021/08/29 03:00:46;;;;;;;0.10;0.10;;;;;;;19.31;59.88;102280.47;5052354;28;19936;-96
2021/08/29 03:03:13;;;;;;;0.10;0.10;;;;;;;19.38;59.74;102282.88;5053087;28;20025;-93
2021/08/29 03:05:40;;;;;;;0.10;0.10;;;;;;;19.44;59.47;102284.50;5054144;28;20033;-96
2021/08/29 03:08:08;;;;;;;0.10;0.10;;;;;;;19.36;59.52;102279.38;5053141;28;20041;-96
2021/08/29 03:10:39;;;;;;;0.32;0.32;;;;;;;19.37;59.34;102274.88;5052698;28;20040;-96
2021/08/29 03:13:07;;;;;;;0.50;0.50;;;;;;;19.36;59.27;102276.69;5052555;28;20440;-94
2021/08/29 03:15:34;;;;;;;0.10;0.10;;;;;;;19.24;59.41;102278.00;5052785;28;20090;-96
2021/08/29 03:18:02;;;;;;;0.10;0.10;;;;;;;19.26;59.49;102275.25;5053081;28;20029;-93
2021/08/29 03:20:29;;;;;;;0.10;0.10;;;;;;;19.26;59.50;102269.00;5052334;28;20037;-96
2021/08/29 03:22:57;;;;;;;0.10;0.10;;;;;;;19.35;59.43;102268.69;5051935;28;20108;-95
2021/08/29 03:25:24;;;;;;;0.10;0.10;;;;;;;19.37;59.18;102269.50;5052807;28;20032;-96
2021/08/29 03:27:50;;;;;;;0.10;0.10;;;;;;;19.32;59.18;102263.41;5045444;28;20120;-96
2021/08/29 03:30:17;;;;;;;0.10;0.10;;;;;;;19.40;59.23;102264.91;5038953;28;20029;-96
2021/08/29 03:32:44;;;;;;;0.17;0.17;;;;;;;19.36;59.19;102260.56;5021654;28;20041;-94
2021/08/29 03:35:14;;;;;;;0.10;0.10;;;;;;;19.35;59.35;102257.94;5043280;28;20060;-96
2021/08/29 03:37:42;;;;;;;0.20;0.20;;;;;;;19.23;59.27;102259.25;5041620;28;20030;-96
2021/08/29 03:40:09;;;;;;;0.10;0.10;;;;;;;19.27;59.58;102260.03;5040691;28;20036;-96
2021/08/29 03:42:36;;;;;;;0.20;0.20;;;;;;;19.29;59.34;102263.50;5041565;28;20476;-96
2021/08/29 03:45:05;;;;;;;0.15;0.15;;;;;;;19.29;59.35;102266.19;5042133;28;20432;-95
2021/08/29 03:47:33;;;;;;;0.10;0.10;;;;;;;19.27;59.47;102251.97;5040702;28;20038;-96
2021/08/29 03:50:00;;;;;;;0.10;0.10;;;;;;;19.35;59.19;102250.75;5040245;28;20036;-96
2021/08/29 03:52:27;;;;;;;0.10;0.10;;;;;;;19.23;59.65;102253.88;5041925;28;20468;-93
2021/08/29 03:54:54;;;;;;;0.63;0.55;;;;;;;19.34;59.46;102250.78;5044466;28;20029;-93
2021/08/29 03:57:22;;;;;;;0.10;0.10;;;;;;;19.16;59.98;102252.31;5043310;28;20033;-94
2021/08/29 03:59:54;;;;;;;0.03;0.03;;;;;;;19.24;59.77;102245.75;5044145;28;20034;-94
2021/08/29 04:02:21;;;;;;;0.10;0.10;;;;;;;19.27;59.96;102247.44;5048139;28;20028;-92
2021/08/29 04:04:47;;;;;;;0.43;0.43;;;;;;;19.27;60.07;102250.13;5040519;28;20037;-95
2021/08/29 04:07:17;;;;;;;0.40;0.40;;;;;;;19.05;60.52;102242.81;5040851;28;20032;-96
2021/08/29 04:09:45;;;;;;;0.10;0.10;;;;;;;19.26;60.21;102234.94;5039079;28;20029;-96
2021/08/29 04:12:15;;;;;;;0.30;0.30;;;;;;;19.28;60.09;102241.16;5041353;28;20037;-96
2021/08/29 04:14:43;;;;;;;0.10;0.10;;;;;;;19.20;60.39;102240.53;5040728;28;20024;-92
2021/08/29 04:17:13;;;;;;;0.10;0.10;;;;;;;19.29;60.20;102242.91;5039642;28;20040;-96
2021/08/29 04:19:42;;;;;;;0.10;0.10;;;;;;;19.26;60.45;102243.00;5041238;28;20049;-96
2021/08/29 04:22:10;;;;;;;0.10;0.10;;;;;;;19.29;60.14;102229.47;5039273;28;20060;-96
2021/08/29 04:24:36;;;;;;;0.98;0.98;;;;;;;19.25;60.29;102230.50;5039094;28;20030;-96
2021/08/29 04:27:03;;;;;;;0.10;0.10;;;;;;;19.24;60.39;102232.31;5040356;28;20413;-91
2021/08/29 04:29:35;;;;;;;0.10;0.10;;;;;;;19.21;60.51;102239.59;5038276;28;20108;-96
2021/08/29 04:32:03;;;;;;;0.08;0.08;;;;;;;19.34;60.11;102230.19;5039521;28;20072;-96
2021/08/29 04:34:31;;;;;;;0.10;0.10;;;;;;;19.28;60.42;102233.09;5042474;28;20048;-95
2021/08/29 04:36:58;;;;;;;0.20;0.20;;;;;;;19.28;60.36;102241.16;5040968;28;20034;-96
2021/08/29 04:39:24;;;;;;;0.10;0.10;;;;;;;19.24;60.45;102236.81;5037940;28;20495;-96
2021/08/29 04:41:52;;;;;;;0.10;0.10;;;;;;;19.19;60.68;102241.44;5038969;28;20469;-94
2021/08/29 04:44:19;;;;;;;0.17;0.17;;;;;;;19.33;60.39;102236.50;5038293;28;20036;-96
2021/08/29 04:46:45;;;;;;;0.17;0.17;;;;;;;19.24;60.64;102232.31;5045418;28;20056;-93
2021/08/29 04:49:12;;;;;;;0.10;0.10;;;;;;;19.29;60.57;102237.53;5053474;28;20022;-95
2021/08/29 04:51:39;;;;;;;0.10;0.10;;;;;;;19.24;60.67;102244.88;5054879;28;20030;-88
2021/08/29 04:54:05;;;;;;;0.95;0.77;;;;;;;19.28;60.66;102240.25;5057945;28;20037;-89
2021/08/29 04:56:32;;;;;;;0.10;0.10;;;;;;;19.31;60.64;102243.72;5058057;28;20049;-89
2021/08/29 04:58:58;;;;;;;0.10;0.10;;;;;;;19.27;60.63;102239.38;5057885;28;20048;-92
2021/08/29 05:01:27;;;;;;;0.10;0.10;;;;;;;19.17;60.87;102238.81;5057767;28;20057;-91
2021/08/29 05:03:53;;;;;;;0.00;0.00;;;;;;;19.30;60.61;102236.63;5056806;28;20013;-93
2021/08/29 05:06:20;;;;;;;0.10;0.10;;;;;;;19.22;60.91;102242.22;5046093;28;20029;-96
2021/08/29 05:08:46;;;;;;;0.10;0.10;;;;;;;19.29;60.70;102242.91;5042708;28;20025;-93
2021/08/29 05:11:12;;;;;;;0.10;0.10;;;;;;;19.36;60.45;102243.56;5053568;28;20102;-85
2021/08/29 05:13:39;;;;;;;0.20;0.20;;;;;;;19.33;60.73;102247.25;5055736;28;20025;-96
2021/08/29 05:16:05;;;;;;;0.10;0.10;;;;;;;19.36;60.63;102249.81;5039333;28;20342;-96
2021/08/29 05:18:32;;;;;;;0.10;0.10;;;;;;;19.38;60.66;102252.47;5040090;28;20037;-96
2021/08/29 05:20:59;;;;;;;0.10;0.10;;;;;;;19.32;60.70;102247.31;5039622;28;20030;-96
2021/08/29 05:23:26;;;;;;;0.10;0.10;;;;;;;19.46;60.36;102254.88;5040297;28;20037;-96
2021/08/29 05:25:52;;;;;;;0.10;0.10;;;;;;;19.37;60.69;102254.25;5041107;28;20069;-96
2021/08/29 05:28:19;;;;;;;0.03;0.03;;;;;;;19.45;60.42;102247.75;5039012;28;20061;-96
2021/08/29 05:30:47;;;;;;;0.03;0.03;;;;;;;19.41;60.58;102244.28;5041127;28;20033;-95
2021/08/29 05:33:14;;;;;;;0.10;0.10;;;;;;;19.36;60.50;102255.19;5039124;28;20065;-96
2021/08/29 05:35:41;;;;;;;0.10;0.10;;;;;;;19.44;60.22;102254.03;5040672;28;20040;-96
2021/08/29 05:38:07;;;;;;;0.00;0.00;;;;;;;19.43;60.21;102252.28;5042937;28;20032;-96
2021/08/29 05:40:34;;;;;;;0.80;0.65;;;;;;;19.44;60.00;102254.03;5044660;28;20097;-96
2021/08/29 05:43:00;;;;;;;0.05;0.05;;;;;;;19.55;60.04;102262.59;5044639;28;20030;-94
2021/08/29 05:45:26;;;;;;;0.00;0.00;;;;;;;19.51;59.93;102256.44;5044882;28;20043;-94
2021/08/29 05:47:53;;;;;;;0.52;0.38;;;;;;;19.46;60.04;102258.44;5044793;28;20086;-96
2021/08/29 05:50:20;;;;;;;0.03;0.03;;;;;;;19.46;59.95;102261.13;5044405;28;20447;-96
2021/08/29 05:52:47;;;;;;;4.53;0.95;;;;;;;19.55;59.95;102257.22;5042426;28;20057;-96
2021/08/29 05:55:13;;;;;;;0.15;0.15;;;;;;;19.42;60.07;102253.25;5039542;28;20148;-96
2021/08/29 05:57:39;;;;;;;0.63;0.63;;;;;;;19.55;59.85;102257.22;5039463;28;20033;-96
2021/08/29 06:00:06;;;;;;;0.10;0.10;;;;;;;19.55;59.73;102252.75;5036598;28;20052;-95
2021/08/29 06:02:38;;;;;;;0.00;0.00;;;;;;;19.58;59.68;102256.25;5035480;28;20037;-96
2021/08/29 06:05:06;;;;;;;0.05;0.05;;;;;;;19.66;59.61;102257.72;5039070;28;20345;-96
2021/08/29 06:07:34;;;;;;;0.10;0.10;;;;;;;19.59;59.61;102249.94;5040353;28;20052;-96
2021/08/29 06:10:03;;;;;;;0.10;0.10;;;;;;;19.58;59.64;102249.06;5042031;28;20033;-95
2021/08/29 06:12:30;;;;;;;0.10;0.10;;;;;;;19.58;59.39;102253.56;5042724;28;20056;-93
2021/08/29 06:14:56;;;;;;;0.10;0.10;;;;;;;19.59;59.46;102249.94;5043552;28;20395;-93
2021/08/29 06:17:25;;;;;;;0.10;0.10;;;;;;;19.55;59.73;102252.75;5044331;28;20129;-96
2021/08/29 06:19:51;;;;;;;0.03;0.03;;;;;;;19.57;59.78;102252.69;5047579;28;20029;-95
2021/08/29 06:22:18;;;;;;;0.25;0.25;;;;;;;19.57;59.83;102247.31;5041260;28;20029;-96
2021/08/29 06:24:44;;;;;;;0.32;0.32;;;;;;;19.49;59.60;102254.75;5044622;28;20034;-93
2021/08/29 06:27:14;;;;;;;0.40;0.40;;;;;;;19.72;59.47;102246.75;5048145;28;20056;-94
2021/08/29 06:29:40;;;;;;;0.00;0.00;;;;;;;19.72;59.47;102238.69;5042799;28;20144;-93
2021/08/29 06:32:07;;;;;;;0.10;0.10;;;;;;;19.82;59.01;102238.34;5042677;28;20337;-96
2021/08/29 06:34:34;;;;;;;0.68;0.68;;;;;;;19.78;59.14;102239.41;5042681;28;20029;-96
2021/08/29 06:37:02;;;;;;;0.10;0.10;;;;;;;19.83;58.97;102240.16;5043151;28;20076;-94
2021/08/29 06:39:30;;;;;;;0.10;0.10;;;;;;;19.85;58.77;102235.56;5044201;28;20041;-95
2021/08/29 06:41:57;;;;;;;1.15;1.10;;;;;;;19.88;58.69;102240.84;5042713;28;20125;-94
2021/08/29 06:44:23;;;;;;;1.00;0.90;;;;;;;19.93;58.79;102238.88;5042577;28;20128;-96
2021/08/29 06:46:49;;;;;;;0.10;0.10;;;;;;;20.01;58.69;102236.78;5041016;28;20072;-96
2021/08/29 06:49:17;;;;;;;0.00;0.00;;;;;;;19.98;58.43;102242.25;5043431;28;20030;-92
2021/08/29 06:51:43;;;;;;;0.20;0.20;;;;;;;20.10;58.33;102240.03;5043231;28;20029;-93
2021/08/29 06:54:10;;;;;;;2.35;0.93;;;;;;;20.14;58.24;102239.00;5043110;28;20036;-93
2021/08/29 06:56:37;;;;;;;0.10;0.10;;;;;;;20.21;58.03;102229.72;5043879;28;20026;-96
2021/08/29 06:59:04;;;;;;;1.75;0.52;;;;;;;20.09;58.07;102223.03;5042387;28;20030;-96
2021/08/29 07:01:32;;;;;;;0.00;0.00;;;;;;;20.19;57.87;102234.31;5043354;28;20026;-96
2021/08/29 07:03:59;;;;;;;0.10;0.10;;;;;;;20.12;57.77;102232.78;5047002;28;20037;-96
2021/08/29 07:06:27;;;;;;;0.00;0.00;;;;;;;20.22;57.78;102228.81;5052156;28;20041;-96
2021/08/29 07:08:53;;;;;;;0.52;0.52;;;;;;;20.28;57.91;102223.19;5052813;28;20099;-96
2021/08/29 07:11:21;;;;;;;0.10;0.10;;;;;;;20.32;57.45;102229.34;5052812;28;20095;-96
2021/08/29 07:13:48;;;;;;;0.10;0.10;;;;;;;20.44;57.43;102220.78;5053418;28;20105;-96
2021/08/29 07:16:15;;;;;;;0.00;0.00;;;;;;;20.36;57.31;102221.09;5054071;28;20045;-96
2021/08/29 07:18:47;;;;;;;0.10;0.10;;;;;;;20.44;57.32;102220.78;5052987;28;20097;-96
2021/08/29 07:21:16;;;;;;;0.10;0.10;;;;;;;20.56;57.20;102218.53;5055132;28;20044;-92
2021/08/29 07:23:44;;;;;;;4.65;0.50;;;;;;;20.46;57.27;102221.59;5055663;28;20057;-96
2021/08/29 07:26:14;;;;;;;0.30;0.30;;;;;;;20.69;57.10;102217.97;5056189;28;20036;-96
2021/08/29 07:28:47;;;;;;;0.05;0.05;;;;;;;20.61;56.94;102222.81;5055522;28;20032;-96
2021/08/29 07:31:14;;;;;;;0.45;0.45;;;;;;;20.53;56.41;102206.94;5055026;28;20040;-93
2021/08/29 07:33:47;;;;;;;0.10;0.10;;;;;;;20.67;56.65;102213.56;5057699;28;20109;-89
2021/08/29 07:36:25;;;;;;;0.10;0.10;;;;;;;20.56;56.63;102216.72;5056629;28;20034;-94
2021/08/29 07:38:56;;;;;;;0.28;0.28;;;;;;;20.66;56.68;102217.22;5056097;28;20035;-95
2021/08/29 07:41:22;;;;;;;0.10;0.10;;;;;;;20.71;56.86;102209.88;5055000;28;20030;-96
2021/08/29 07:43:49;;;;;;;0.10;0.10;;;;;;;20.67;56.80;102213.56;5056003;28;20033;-95
2021/08/29 07:46:15;;;;;;;0.10;0.10;;;;;;;20.74;56.33;102219.66;5055468;28;20143;-96
2021/08/29 07:48:45;;;;;;;0.17;0.17;;;;;;;20.79;56.43;102206.84;5051553;28;20045;-95
2021/08/29 07:51:12;;;;;;;16.73;1.10;;;;;;;20.65;56.61;102216.34;5055851;28;20047;-96
2021/08/29 07:53:41;;;;;;;0.10;0.10;;;;;;;20.76;56.66;102206.97;5058793;28;20026;-94
2021/08/29 07:56:09;;;;;;;0.10;0.10;;;;;;;20.80;56.58;102203.22;5055397;28;20044;-96
2021/08/29 07:58:36;;;;;;;0.10;0.10;;;;;;;20.87;56.51;102202.00;5053789;28;20033;-96
2021/08/29 08:01:06;;;;;;;0.20;0.20;;;;;;;20.84;56.19;102204.84;5055448;28;20033;-96
2021/08/29 08:03:32;;;;;;;0.10;0.10;;;;;;;20.96;56.42;102207.03;5053991;28;20053;-96
2021/08/29 08:06:02;;;;;;;0.32;0.32;;;;;;;20.93;56.31;102198.19;5050376;28;20044;-95
2021/08/29 08:08:30;;;;;;;0.10;0.10;;;;;;;20.89;56.58;102196.59;5048568;28;20029;-96
2021/08/29 08:10:59;;;;;;;0.10;0.10;;;;;;;21.04;56.28;102205.84;5048575;28;20033;-96
2021/08/29 08:13:30;;;;;;;0.40;0.40;;;;;;;21.10;56.55;102210.97;5051095;28;20148;-96
2021/08/29 08:16:01;;;;;;;0.10;0.10;;;;;;;21.19;56.19;102215.94;5048578;28;20037;-93
2021/08/29 08:18:29;;;;;;;0.13;0.13;;;;;;;21.13;56.37;102217.09;5050052;28;20106;-94
2021/08/29 08:20:58;;;;;;;0.10;0.10;;;;;;;21.22;56.43;102212.22;5049246;28;20033;-95
2021/08/29 08:23:25;;;;;;;0.38;0.38;;;;;;;21.02;56.38;102213.97;5052151;28;20030;-95
2021/08/29 08:25:54;;;;;;;0.10;0.10;;;;;;;21.03;56.68;102212.16;5050721;28;20085;-94
2021/08/29 08:28:20;;;;;;;0.10;0.10;;;;;;;21.16;56.29;102210.69;5051783;28;20052;-91
2021/08/29 08:30:52;;;;;;;0.10;0.10;;;;;;;21.17;56.50;102205.22;5049223;28;20032;-94
2021/08/29 08:33:19;;;;;;;0.90;0.80;;;;;;;21.24;56.22;102208.53;5052088;28;20033;-89
2021/08/29 08:35:47;;;;;;;0.30;0.30;;;;;;;21.30;56.32;102212.78;5050304;28;20045;-94
2021/08/29 08:38:14;;;;;;;0.10;0.10;;;;;;;21.17;56.28;102207.03;5050169;28;20093;-94
2021/08/29 08:40:43;;;;;;;0.25;0.25;;;;;;;21.28;56.15;102207.47;5051390;28;20056;-95
2021/08/29 08:43:18;;;;;;;2.15;0.40;;;;;;;21.36;56.27;102199.03;5053187;28;20009;-95
2021/08/29 08:45:47;;;;;;;0.10;0.10;;;;;;;21.17;56.46;102201.66;5054282;28;20038;-87
2021/08/29 08:48:15;;;;;;;0.55;0.20;;;;;;;21.21;56.38;102205.97;5055931;28;20073;-86
2021/08/29 08:50:48;;;;;;;0.10;0.10;;;;;;;21.26;56.24;102201.25;5054525;28;20029;-93
2021/08/29 08:53:18;;;;;;;0.10;0.10;;;;;;;20.92;56.21;102205.41;5052605;28;20037;-96
2021/08/29 08:55:47;;;;;;;0.10;0.10;;;;;;;21.04;56.24;102203.13;5052176;28;20017;-96
2021/08/29 08:58:17;;;;;;;0.10;0.10;;;;;;;21.13;56.50;102213.50;5053061;28;20030;-96
2021/08/29 09:00:47;;;;;;;0.10;0.10;;;;;;;21.12;56.24;102209.06;5051253;28;20026;-91
2021/08/29 09:03:16;;;;;;;0.10;0.10;;;;;;;21.20;57.57;102208.72;5047740;28;20021;-93
2021/08/29 09:05:43;;;;;;;0.10;0.10;;;;;;;20.93;57.54;102209.84;5050044;28;20045;-90
2021/08/29 09:08:10;;;;;;;0.10;0.10;;;;;;;20.96;57.78;102211.53;5058045;28;20018;-84
2021/08/29 09:10:37;;;;;;;0.10;0.10;;;;;;;20.74;57.68;102219.66;5047367;28;20049;-87
2021/08/29 09:13:06;;;;;;;0.10;0.10;;;;;;;20.73;57.92;102213.34;5042032;28;20042;-88
2021/08/29 09:15:34;;;;;;;0.10;0.10;;;;;;;20.74;57.83;102217.81;5040275;28;20037;-86
2021/08/29 09:18:01;;;;;;;25.55;0.85;;;;;;;20.72;58.13;102218.81;5042567;28;20030;-83
2021/08/29 09:20:35;;;;;;;0.10;0.10;;;;;;;20.66;58.02;102211.81;5041725;28;20029;-86
2021/08/29 09:23:08;;;;;;;0.10;0.10;;;;;;;20.56;57.92;102210.44;5044081;28;20116;-96
2021/08/29 09:25:41;;;;;;;0.20;0.20;;;;;;;20.77;57.87;102211.41;5046601;28;20052;-89
2021/08/29 09:28:12;;;;;;;0.20;0.20;;;;;;;20.80;57.69;102200.53;5041899;28;20029;-83
2021/08/29 09:30:46;;;;;;;0.10;0.10;;;;;;;20.77;57.73;102203.34;5041020;28;20037;-83
2021/08/29 09:33:13;;;;;;;0.10;0.10;;;;;;;20.66;57.76;102210.03;5042555;28;20060;-85
2021/08/29 09:35:41;;;;;;;0.63;0.63;;;;;;;20.66;57.62;102211.81;5040474;28;20492;-86
2021/08/29 09:38:16;;;;;;;0.08;0.08;;;;;;;20.73;57.56;102204.41;5043081;28;20038;-86
2021/08/29 09:40:43;;;;;;;0.10;0.10;;;;;;;20.64;58.04;102203.81;5043063;28;20026;-83
2021/08/29 09:43:09;;;;;;;0.10;0.10;;;;;;;20.65;57.83;102216.34;5042368;28;20033;-85
2021/08/29 09:45:47;;;;;;;0.35;0.35;;;;;;;20.66;57.78;102214.50;5041975;28;20055;-84
2021/08/29 09:48:16;;;;;;;0.10;0.10;;;;;;;20.62;57.92;102213.78;5041265;28;20032;-88
2021/08/29 09:50:45;;;;;;;0.10;0.10;;;;;;;20.74;57.68;102209.72;5041913;28;20037;-87
2021/08/29 09:53:18;;;;;;;0.10;0.10;;;;;;;20.75;57.57;102200.72;5040702;28;20034;-84
2021/08/29 09:55:50;;;;;;;0.10;0.10;;;;;;;20.64;57.51;102197.56;5041296;28;20041;-87
2021/08/29 09:58:32;;;;;;;0.10;0.10;;;;;;;20.89;56.95;102202.81;5043697;28;20089;-84
2021/08/29 10:04:19;;;;;;;0.65;0.65;;;;;;;20.93;56.59;102199.06;5105503;27;20797;-83
2021/08/29 10:06:55;;;;;;;0.10;0.10;;;;;;;20.84;56.58;102191.38;5096385;28;20398;-84
2021/08/29 10:09:44;;;;;;;1.45;1.30;;;;;;;21.07;56.62;102194.91;5120755;22;20099;-83
2021/08/29 10:12:17;;;;;;;0.25;0.25;;;;;;;21.20;56.00;102187.16;5062720;28;20400;-83
2021/08/29 10:14:51;;;;;;;0.30;0.30;;;;;;;21.15;55.44;102182.84;5068026;28;20029;-94
2021/08/29 10:17:31;;;;;;;0.10;0.10;;;;;;;21.14;56.15;102182.94;5065601;28;20057;-96
2021/08/29 10:19:59;;;;;;;0.20;0.20;;;;;;;21.22;56.14;102178.09;5047814;28;20033;-96
2021/08/29 10:22:25;;;;;;;0.20;0.20;;;;;;;21.33;55.83;102175.78;5046563;28;20060;-90
2021/08/29 10:24:55;;;;;;;3.50;1.23;;;;;;;21.45;55.74;102173.50;5046942;28;20037;-96
2021/08/29 10:27:23;;;;;;;0.10;0.10;;;;;;;21.29;55.75;102167.91;5065543;28;20080;-95
2021/08/29 10:29:59;;;;;;;0.00;0.00;;;;;;;21.34;55.84;102171.25;5046905;28;20033;-95
2021/08/29 10:32:45;;;;;;;0.30;0.30;;;;;;;20.97;56.99;102178.25;5065044;28;20028;-96
2021/08/29 10:35:14;;;;;;;0.10;0.10;;;;;;;20.84;57.17;102172.53;5049263;28;20037;-96
2021/08/29 10:37:45;;;;;;;0.10;0.10;;;;;;;20.55;58.27;102181.75;5070813;28;20077;-93
2021/08/29 10:40:18;;;;;;;1.80;1.65;;;;;;;20.62;57.91;102177.88;5052800;28;20068;-93
2021/08/29 10:42:46;;;;;;;0.10;0.10;;;;;;;20.52;58.28;102180.06;5070320;28;20041;-94
2021/08/29 10:45:14;;;;;;;0.25;0.25;;;;;;;20.41;59.20;102174.25;5066494;28;20084;-95
2021/08/29 10:47:45;;;;;;;0.10;0.10;;;;;;;20.48;58.63;102167.69;5047655;28;20037;-88
2021/08/29 10:50:20;;;;;;;0.73;0.73;;;;;;;20.40;59.35;102173.38;5046924;28;20044;-90
2021/08/29 10:52:47;;;;;;;0.00;0.00;;;;;;;20.32;59.23;102173.66;5060735;28;20052;-90
2021/08/29 10:55:18;;;;;;;0.32;0.32;;;;;;;20.28;59.88;102174.75;5063112;28;20033;-96
2021/08/29 10:57:46;;;;;;;0.10;0.10;;;;;;;20.29;59.50;102165.72;5062032;28;20033;-88
2021/08/29 11:00:24;;;;;;;0.10;0.10;;;;;;;20.28;60.16;102163.97;5024914;28;20034;-94
2021/08/29 11:02:52;;;;;;;0.10;0.10;;;;;;;20.23;60.47;102167.81;5061112;28;20439;-95
2021/08/29 11:08:28;;;;;;;0.30;0.30;;;;;;;20.18;61.32;102176.91;5094653;27;20411;-94
2021/08/29 11:10:57;;;;;;;0.10;0.10;;;;;;;20.20;61.58;102166.97;5093520;28;20072;-95
2021/08/29 11:28:09;;;;;;;0.68;0.68;;;;;;;20.34;60.46;102166.44;5091518;28;20427;-96
2021/08/29 11:34:07;;;;;;;0.10;0.10;;;;;;;20.48;60.25;102159.63;5100552;22;20032;-96
2021/08/29 11:36:33;;;;;;;;;;;;;;;20.59;59.96;102151.97;5099974;28;20192;-96
2021/08/29 11:39:01;;;;;;;0.25;0.25;;;;;;;20.41;60.12;102158.09;5103916;28;19912;-93
2021/08/29 11:41:35;;;;;;;2.53;1.55;;;;;;;20.44;60.07;102156.16;5098372;28;20032;-92
2021/08/29 11:44:01;;;;;;;0.80;0.80;;;;;;;20.43;59.82;102150.84;5099160;28;20025;-94
2021/08/29 11:46:36;;;;;;;0.03;0.03;;;;;;;20.26;60.05;102149.72;5100401;28;20076;-92
2021/08/29 11:49:07;;;;;;;0.10;0.10;;;;;;;20.45;60.29;102149.84;5113914;28;20027;-82
2021/08/29 11:51:36;;;;;;;0.20;0.20;;;;;;;20.48;59.89;102151.53;5113511;28;20025;-87
2021/08/29 11:54:05;;;;;;;2.60;1.20;;;;;;;20.52;59.97;102151.34;5113721;28;20091;-92
2021/08/29 11:56:33;;;;;;;0.10;0.10;;;;;;;20.62;59.65;102148.25;5113457;28;20044;-92
2021/08/29 11:59:02;;;;;;;0.00;0.00;;;;;;;20.68;59.56;102145.31;5113689;28;20020;-84
2021/08/29 12:01:31;;;;;;;0.13;0.13;;;;;;;20.70;59.71;102146.13;5105387;28;20036;-96
2021/08/29 12:04:02;;;;;;;0.10;0.10;;;;;;;20.56;60.31;102149.41;5100025;28;20028;-96
2021/08/29 12:10:18;;;;;;;0.10;0.10;;;;;;;20.57;60.56;102143.06;5100203;27;20423;-96